createdAt,value
2024-02-29T00:00:17.892Z,7.3
2024-02-29T00:05:41.159Z,7.4
2024-02-29T00:11:20.212Z,7.1
2024-02-29T00:16:59.211Z,7.1
2024-02-29T00:22:38.049Z,7.1
2024-02-29T00:28:01.462Z,7
2024-02-29T00:33:40.304Z,6.9
2024-02-29T00:39:35.460Z,7
2024-02-29T00:45:14.277Z,7
2024-02-29T00:50:53.558Z,7
2024-02-29T00:56:32.719Z,6.8
2024-02-29T01:01:56.230Z,6.6
2024-02-29T01:07:35.078Z,6.6
2024-02-29T01:13:14.146Z,6.3
2024-02-29T01:18:52.755Z,6.4
2024-02-29T01:24:19.316Z,6.5
2024-02-29T01:29:57.480Z,6.3
2024-02-29T01:35:48.521Z,6.2
2024-02-29T01:41:27.464Z,5.9
2024-02-29T01:46:50.403Z,6.2
2024-02-29T01:52:29.634Z,6.1
2024-02-29T01:58:11.816Z,5.8
2024-02-29T02:03:51.706Z,6
2024-02-29T02:09:30.800Z,6.2
2024-02-29T02:15:09.727Z,6.3
2024-02-29T02:20:17.621Z,6.1
2024-02-29T02:25:40.741Z,5.9
2024-02-29T02:31:04.095Z,6
2024-02-29T02:36:26.503Z,6.1
2024-02-29T02:41:49.673Z,5.6
2024-02-29T02:46:57.143Z,5.5
2024-02-29T02:52:20.874Z,5.4
2024-02-29T02:57:28.223Z,5.4
2024-02-29T03:03:07.150Z,5.3
2024-02-29T03:08:45.885Z,5.3
2024-02-29T03:14:25.165Z,5.3
2024-02-29T03:20:03.810Z,5.3
2024-02-29T03:25:42.456Z,5.3
2024-02-29T03:31:21.363Z,5.2
2024-02-29T03:36:59.983Z,5.2
2024-02-29T03:42:38.431Z,4.8
2024-02-29T03:48:17.501Z,4.8
2024-02-29T03:53:56.171Z,4.9
2024-02-29T03:59:34.720Z,5
2024-02-29T04:05:13.979Z,4.8
2024-02-29T04:10:52.712Z,4.8
2024-02-29T04:16:31.461Z,4.9
2024-02-29T04:22:10.125Z,4.9
2024-02-29T04:27:49.064Z,4.6
2024-02-29T04:33:27.725Z,4.9
2024-02-29T04:39:06.749Z,4.9
2024-02-29T04:44:45.197Z,5.1
2024-02-29T04:50:08.038Z,5.1
2024-02-29T04:55:47.309Z,5.1
2024-02-29T05:01:26.089Z,5
2024-02-29T05:07:04.930Z,5.1
2024-02-29T05:12:30.382Z,5.1
2024-02-29T05:18:09.010Z,5.1
2024-02-29T05:23:47.391Z,4.9
2024-02-29T05:29:26.431Z,4.8
2024-02-29T05:35:07.196Z,4.9
2024-02-29T05:40:46.200Z,4.9
2024-02-29T05:46:29.114Z,5
2024-02-29T05:51:52.236Z,5.1
2024-02-29T05:57:30.443Z,5.3
2024-02-29T06:03:10.094Z,5.5
2024-02-29T06:08:50.460Z,5.6
2024-02-29T06:14:29.110Z,5.7
2024-02-29T06:20:08.404Z,5.9
2024-02-29T06:25:47.263Z,6.1
2024-02-29T06:31:26.424Z,6
2024-02-29T06:37:05.731Z,6.2
2024-02-29T06:42:44.584Z,6.2
2024-02-29T06:48:08.641Z,6.4
2024-02-29T06:53:47.963Z,6.8
2024-02-29T06:59:27.948Z,6.9
2024-02-29T07:05:06.875Z,7.3
2024-02-29T07:10:46.476Z,7.3
2024-02-29T07:16:26.022Z,7.4
2024-02-29T07:22:04.599Z,7.4
2024-02-29T07:27:28.561Z,7.7
2024-02-29T07:33:08.387Z,8
2024-02-29T07:38:32.034Z,8.1
2024-02-29T07:43:56.619Z,8.1
2024-02-29T07:49:38.372Z,8.1
2024-02-29T07:55:18.349Z,8.2
2024-02-29T08:01:01.505Z,8.1
2024-02-29T08:06:42.054Z,8.2
2024-02-29T08:12:21.600Z,8.4
2024-02-29T08:18:03.942Z,8.8
2024-02-29T08:23:43.091Z,8.8
2024-02-29T08:29:06.552Z,9.3
2024-02-29T08:34:47.911Z,9.3
2024-02-29T08:40:26.455Z,9.3
2024-02-29T08:46:05.122Z,9.3
2024-02-29T08:51:44.716Z,9.4
2024-02-29T08:57:23.012Z,9.4
2024-02-29T09:03:02.574Z,9.3
2024-02-29T09:08:43.903Z,9.4
2024-02-29T09:14:37.746Z,9.6
2024-02-29T09:20:17.752Z,9.8
2024-02-29T09:25:45.085Z,10
2024-02-29T09:31:27.878Z,10.3
2024-02-29T09:37:10.886Z,10
2024-02-29T09:43:26.324Z,10.3
2024-02-29T09:49:07.905Z,10.3
2024-02-29T09:54:56.994Z,10.3
2024-02-29T10:00:23.922Z,10.8
2024-02-29T10:06:05.997Z,10.9
2024-02-29T10:11:49.117Z,10.9
2024-02-29T10:17:27.950Z,11.4
2024-02-29T10:23:09.438Z,11.8
2024-02-29T10:28:47.399Z,12
2024-02-29T10:34:28.978Z,12.3
2024-02-29T10:40:09.795Z,12.8
2024-02-29T10:45:48.881Z,13.8
2024-02-29T10:51:13.025Z,13.9
2024-02-29T10:56:53.491Z,13.7
2024-02-29T11:02:32.530Z,13.9
2024-02-29T11:08:11.583Z,14.5
2024-02-29T11:13:51.144Z,14.4
2024-02-29T11:18:58.851Z,14.3
2024-02-29T11:24:56.791Z,14.7
2024-02-29T11:30:36.300Z,15.1
2024-02-29T11:36:15.769Z,15.3
2024-02-29T11:42:08.363Z,15.1
2024-02-29T11:47:32.045Z,15.4
2024-02-29T11:53:14.227Z,15.4
2024-02-29T11:59:09.463Z,14.8
2024-02-29T12:04:49.877Z,15.1
2024-02-29T12:10:29.404Z,14.6
2024-02-29T12:16:12.903Z,15.1
2024-02-29T12:21:36.369Z,14.8
2024-02-29T12:27:19.758Z,14.7
2024-02-29T12:32:59.634Z,14.8
2024-02-29T12:38:40.635Z,15.4
2024-02-29T12:44:21.076Z,15.3
2024-02-29T12:50:01.323Z,15.1
2024-02-29T12:55:41.779Z,14.6
2024-02-29T13:01:26.412Z,15.1
2024-02-29T13:07:08.992Z,14.8
2024-02-29T13:12:35.008Z,15.3
2024-02-29T13:17:49.927Z,15.6
2024-02-29T13:23:30.221Z,15.6
2024-02-29T13:28:58.420Z,15.4
2024-02-29T13:34:40.863Z,15.3
2024-02-29T13:40:20.429Z,15.4
2024-02-29T13:51:40.965Z,16.4
2024-02-29T13:57:05.328Z,16.3
2024-02-29T14:02:30.129Z,15.4
2024-02-29T14:08:09.361Z,15.1
2024-02-29T14:13:49.207Z,15.1
2024-02-29T14:19:31.270Z,15.3
2024-02-29T14:25:10.333Z,15.9
2024-02-29T14:30:34.018Z,16.1
2024-02-29T14:36:14.849Z,15.6
2024-02-29T14:41:54.232Z,15.6
2024-02-29T14:47:33.942Z,15.3
2024-02-29T14:53:14.858Z,15.2
2024-02-29T14:58:54.574Z,14.8
2024-02-29T15:04:19.333Z,14.6
2024-02-29T15:10:00.313Z,14.4
2024-02-29T15:15:44.097Z,14.5
2024-02-29T15:21:24.081Z,14.6
2024-02-29T15:26:47.627Z,14.4
2024-02-29T15:32:11.662Z,14.4
2024-02-29T15:37:54.035Z,14.4
2024-02-29T15:43:33.180Z,14.3
2024-02-29T15:49:12.595Z,14
2024-02-29T15:54:39.758Z,13.8
2024-02-29T16:00:21.705Z,13.8
2024-02-29T16:06:01.342Z,13.6
2024-02-29T16:11:26.766Z,13.4
2024-02-29T16:16:53.885Z,13.4
2024-02-29T16:22:33.758Z,13.3
2024-02-29T16:28:13.022Z,13.2
2024-02-29T16:33:54.754Z,13.1
2024-02-29T16:39:33.589Z,12.9
2024-02-29T16:45:16.266Z,12.9
2024-02-29T16:50:55.658Z,12.8
2024-02-29T16:56:35.237Z,12.4
2024-02-29T17:02:16.476Z,12.3
2024-02-29T17:07:57.985Z,12.1
2024-02-29T17:13:40.174Z,12.1
2024-02-29T17:19:06.053Z,11.9
2024-02-29T17:24:44.946Z,12.1
2024-02-29T17:30:24.398Z,11.9
2024-02-29T17:36:03.634Z,11.9
2024-02-29T17:41:29.729Z,11.9
2024-02-29T17:47:08.668Z,11.9
2024-02-29T17:52:49.819Z,11.8
2024-02-29T17:58:29.477Z,11.9
2024-02-29T18:04:09.921Z,11.9
2024-02-29T18:09:57.736Z,11.8
2024-02-29T18:15:36.773Z,11.5
2024-02-29T18:21:16.779Z,11.4
2024-02-29T18:26:56.399Z,11.3
2024-02-29T18:32:35.501Z,11.1
2024-02-29T18:38:15.513Z,11.1
2024-02-29T18:43:54.928Z,11.1
2024-02-29T18:49:48.669Z,11.1
2024-02-29T18:55:30.281Z,11
2024-02-29T19:01:09.649Z,10.8
2024-02-29T19:06:51.002Z,10.7
2024-02-29T19:12:34.289Z,10.8
2024-02-29T19:17:42.107Z,10.8
2024-02-29T19:23:09.020Z,10.8
2024-02-29T19:28:48.858Z,10.8
2024-02-29T19:34:27.631Z,10.7
2024-02-29T19:40:10.011Z,10.7
2024-02-29T19:45:50.162Z,10.6
2024-02-29T19:51:13.895Z,10.4
2024-02-29T19:56:37.874Z,10.4
2024-02-29T20:02:18.185Z,10.4
2024-02-29T20:07:57.759Z,10.6
2024-02-29T20:13:21.724Z,10.6
2024-02-29T20:18:30.917Z,10.6
2024-02-29T20:23:55.742Z,10.5
2024-02-29T20:29:06.532Z,10.4
2024-02-29T20:34:31.625Z,10.4
2024-02-29T20:40:11.665Z,10.6
2024-02-29T20:45:36.001Z,10.5
2024-02-29T20:50:45.217Z,10.6
2024-02-29T20:56:09.198Z,10.4
2024-02-29T21:01:17.235Z,10.4
2024-02-29T21:06:25.496Z,10.4
2024-02-29T21:11:50.394Z,10.5
2024-02-29T21:17:14.013Z,10.5
2024-02-29T21:22:38.182Z,10.4
2024-02-29T21:28:00.980Z,9.9
2024-02-29T21:33:27.814Z,9.6
2024-02-29T21:38:51.793Z,9.6
2024-02-29T21:44:10.006Z,9.6
2024-02-29T21:49:48.886Z,9.6
2024-02-29T21:55:27.860Z,9.6
2024-02-29T22:01:06.843Z,9.4
2024-02-29T22:06:32.263Z,9.4
2024-02-29T22:12:14.493Z,9.3
2024-02-29T22:17:55.308Z,9.3
2024-02-29T22:23:35.804Z,9.3
2024-02-29T22:28:59.540Z,9.3
2024-02-29T22:34:39.207Z,9.2
2024-02-29T22:40:18.164Z,9.1
2024-02-29T22:46:09.240Z,9.3
2024-02-29T22:51:48.497Z,9.2
2024-02-29T22:57:27.743Z,9.2
2024-02-29T23:03:13.188Z,9.1
2024-02-29T23:08:52.683Z,9.1
2024-02-29T23:14:17.239Z,9
2024-02-29T23:19:41.072Z,8.9
2024-02-29T23:25:24.627Z,8.9
2024-02-29T23:31:04.844Z,8.9
2024-02-29T23:36:47.208Z,9
2024-02-29T23:42:11.175Z,8.9
2024-02-29T23:47:49.742Z,8.9
2024-02-29T23:53:29.025Z,8.9
2024-02-29T23:59:08.221Z,8.9
